Time;durP1;ratioP1;P1;durP2;ratioP2;P2;SDS_P1;SDS_P2;PMS_P1;PMS_P2;Temp;Humidity;BMP_temperature;BMP_pressure;BME280_temperature;BME280_humidity;BME280_pressure;Samples;Min_cycle;Max_cycle;Signal;HPM_P1;HPM_P2
2023/06/04 00:02:22;;;;;;;0.50;0.40;;;12.60;99.90;;;;;;5019679;28;20501;-84
2023/06/04 00:04:48;;;;;;;0.50;0.40;;;12.50;99.90;;;;;;5019246;28;20231;-84
2023/06/04 00:07:15;;;;;;;0.50;0.40;;;12.40;99.90;;;;;;5019877;28;20214;-84
2023/06/04 00:09:42;;;;;;;0.50;0.40;;;12.30;99.90;;;;;;5020153;28;20455;-84
2023/06/04 00:12:10;;;;;;;0.50;0.40;;;12.30;99.90;;;;;;5019730;28;20196;-85
2023/06/04 00:14:37;;;;;;;0.50;0.40;;;12.30;99.90;;;;;;5020028;28;20207;-84
2023/06/04 00:17:04;;;;;;;0.50;0.40;;;12.30;99.90;;;;;;5018937;28;20895;-84
2023/06/04 00:19:33;;;;;;;0.50;0.40;;;12.20;99.90;;;;;;5019441;28;20446;-85
2023/06/04 00:22:00;;;;;;;0.50;0.40;;;12.20;99.90;;;;;;5019636;28;20214;-84
2023/06/04 00:24:27;;;;;;;0.50;0.40;;;12.10;99.90;;;;;;5019661;28;20216;-84
2023/06/04 00:26:54;;;;;;;0.50;0.40;;;12.10;99.90;;;;;;5019405;28;20207;-84
2023/06/04 00:29:22;;;;;;;0.50;0.40;;;12.00;99.90;;;;;;5019399;28;20196;-84
2023/06/04 00:31:48;;;;;;;0.50;0.40;;;12.00;99.90;;;;;;5019329;28;20196;-84
2023/06/04 00:34:15;;;;;;;0.50;0.40;;;12.00;99.90;;;;;;5019153;28;20200;-84
2023/06/04 00:36:42;;;;;;;0.50;0.40;;;11.90;99.90;;;;;;5019446;28;20660;-84
2023/06/04 00:39:09;;;;;;;0.50;0.40;;;11.90;99.90;;;;;;5017580;28;20659;-84
2023/06/04 00:41:35;;;;;;;0.50;0.40;;;11.80;99.90;;;;;;5019559;28;20192;-84
2023/06/04 00:44:06;;;;;;;0.83;0.73;;;11.80;99.90;;;;;;5019340;28;20206;-84
2023/06/04 00:46:36;;;;;;;0.50;0.40;;;11.70;99.90;;;;;;5018412;28;20474;-84
2023/06/04 00:49:03;;;;;;;0.50;0.40;;;11.70;99.90;;;;;;5019033;28;20623;-85
2023/06/04 00:51:31;;;;;;;0.50;0.40;;;11.70;99.90;;;;;;5018468;28;20211;-84
2023/06/04 00:53:59;;;;;;;0.50;0.40;;;11.70;99.90;;;;;;5018557;28;20196;-84
2023/06/04 00:56:26;;;;;;;0.50;0.40;;;11.60;99.90;;;;;;5018226;28;20606;-84
2023/06/04 00:58:53;;;;;;;0.50;0.40;;;11.60;99.90;;;;;;5019190;28;20214;-84
2023/06/04 01:01:28;;;;;;;0.50;0.40;;;11.60;99.90;;;;;;5018415;28;20223;-84
2023/06/04 01:03:58;;;;;;;0.50;0.40;;;11.50;99.90;;;;;;5018276;28;20207;-85
2023/06/04 01:06:32;;;;;;;0.50;0.40;;;11.50;99.90;;;;;;5019347;28;20702;-84
2023/06/04 01:09:00;;;;;;;0.50;0.40;;;11.40;99.90;;;;;;5017984;28;20200;-84
2023/06/04 01:11:34;;;;;;;0.50;0.40;;;11.40;99.90;;;;;;5018218;28;20208;-84
2023/06/04 01:14:01;;;;;;;0.50;0.40;;;11.40;99.90;;;;;;5018105;28;20246;-84
2023/06/04 01:16:29;;;;;;;0.50;0.40;;;11.50;99.90;;;;;;5018248;28;20212;-84
2023/06/04 01:19:02;;;;;;;0.50;0.40;;;11.50;99.90;;;;;;5018168;28;20204;-84
2023/06/04 01:21:35;;;;;;;0.50;0.40;;;11.40;99.90;;;;;;5018504;28;20192;-84
2023/06/04 01:24:06;;;;;;;0.50;0.40;;;11.40;99.90;;;;;;5018728;28;20287;-84
2023/06/04 01:26:33;;;;;;;0.50;0.40;;;11.30;99.90;;;;;;5018021;28;20222;-84
2023/06/04 01:29:01;;;;;;;0.50;0.40;;;11.30;99.90;;;;;;5017488;28;20220;-84
2023/06/04 01:31:32;;;;;;;0.50;0.40;;;11.30;99.90;;;;;;5018125;28;20200;-84
2023/06/04 01:34:01;;;;;;;0.50;0.40;;;11.30;99.90;;;;;;5018173;28;20196;-84
2023/06/04 01:36:28;;;;;;;0.50;0.40;;;11.30;99.90;;;;;;5018022;28;20553;-84
2023/06/04 01:38:55;;;;;;;0.50;0.40;;;11.30;99.90;;;;;;5017581;28;20399;-84
2023/06/04 01:41:22;;;;;;;0.50;0.40;;;11.20;99.90;;;;;;5018000;28;20192;-83
2023/06/04 01:43:49;;;;;;;0.50;0.50;;;11.20;99.90;;;;;;5017443;28;20664;-83
2023/06/04 01:46:16;;;;;;;0.50;0.40;;;11.20;99.90;;;;;;5058494;22;20251;-81
2023/06/04 01:48:44;;;;;;;0.50;0.40;;;11.20;99.90;;;;;;5007143;28;20192;-83
2023/06/04 01:51:12;;;;;;;0.50;0.40;;;11.10;99.90;;;;;;5001019;28;20246;-83
2023/06/04 01:53:39;;;;;;;0.50;0.40;;;11.10;99.90;;;;;;5009047;28;20206;-83
2023/06/04 01:56:07;;;;;;;0.50;0.40;;;11.10;99.90;;;;;;5000230;28;20216;-83
2023/06/04 01:58:34;;;;;;;0.50;0.40;;;11.10;99.90;;;;;;5008536;28;20204;-83
2023/06/04 02:01:03;;;;;;;0.50;0.50;;;11.10;99.90;;;;;;5007301;28;20204;-83
2023/06/04 02:03:36;;;;;;;0.50;0.40;;;11.10;99.90;;;;;;5005361;28;20291;-83
2023/06/04 02:06:04;;;;;;;0.50;0.40;;;11.10;99.90;;;;;;5006708;28;20220;-83
2023/06/04 02:08:33;;;;;;;0.50;0.40;;;11.00;99.90;;;;;;5009157;28;20199;-83
2023/06/04 02:11:00;;;;;;;0.50;0.40;;;11.00;99.90;;;;;;5007766;28;20199;-83
2023/06/04 02:13:26;;;;;;;0.77;0.77;;;11.00;99.90;;;;;;5006315;28;20199;-83
2023/06/04 02:15:53;;;;;;;0.50;0.40;;;10.90;99.90;;;;;;5006167;28;20209;-83
2023/06/04 02:18:22;;;;;;;0.50;0.50;;;10.90;99.90;;;;;;5009527;28;20231;-83
2023/06/04 02:20:49;;;;;;;0.50;0.40;;;10.90;99.90;;;;;;5009213;28;20619;-83
2023/06/04 02:23:18;;;;;;;0.50;0.40;;;10.90;99.90;;;;;;4998412;28;20197;-81
2023/06/04 02:25:49;;;;;;;0.60;0.60;;;10.80;99.90;;;;;;5004921;28;20308;-83
2023/06/04 02:28:16;;;;;;;0.85;0.85;;;10.80;99.90;;;;;;5008862;28;20199;-83
2023/06/04 02:30:43;;;;;;;0.50;0.40;;;10.80;99.90;;;;;;5009079;28;20208;-83
2023/06/04 02:33:10;;;;;;;0.50;0.50;;;10.80;99.90;;;;;;5000466;28;20209;-83
2023/06/04 02:35:37;;;;;;;0.50;0.40;;;10.80;99.90;;;;;;5008400;28;20302;-83
2023/06/04 02:38:04;;;;;;;0.50;0.40;;;10.70;99.90;;;;;;5006591;28;20195;-83
2023/06/04 02:40:31;;;;;;;0.50;0.50;;;10.70;99.90;;;;;;5005352;28;20200;-83
2023/06/04 02:42:59;;;;;;;0.50;0.50;;;10.70;99.90;;;;;;5005695;28;20203;-83
2023/06/04 02:45:26;;;;;;;0.50;0.40;;;10.70;99.90;;;;;;5008415;28;20222;-83
2023/06/04 02:47:53;;;;;;;0.50;0.40;;;10.60;99.90;;;;;;5007929;28;20204;-82
2023/06/04 02:50:20;;;;;;;0.50;0.40;;;10.60;99.90;;;;;;5005422;28;20201;-83
2023/06/04 02:52:47;;;;;;;0.50;0.50;;;10.60;99.90;;;;;;5004939;28;20201;-83
2023/06/04 02:55:14;;;;;;;0.50;0.50;;;10.60;99.90;;;;;;5007435;28;20192;-83
2023/06/04 02:57:42;;;;;;;0.50;0.40;;;10.60;99.90;;;;;;5008742;28;20196;-83
2023/06/04 03:00:12;;;;;;;0.50;0.40;;;10.50;99.90;;;;;;5005717;28;20199;-83
2023/06/04 03:02:42;;;;;;;0.50;0.40;;;10.50;99.90;;;;;;5005039;28;20191;-83
2023/06/04 03:05:12;;;;;;;0.50;0.40;;;10.40;99.90;;;;;;5009673;28;20196;-83
2023/06/04 03:07:40;;;;;;;0.50;0.40;;;10.40;99.90;;;;;;5009529;28;20259;-83
2023/06/04 03:10:08;;;;;;;0.50;0.40;;;10.30;99.90;;;;;;5010488;28;20573;-83
2023/06/04 03:12:35;;;;;;;0.50;0.40;;;10.30;99.90;;;;;;5011669;28;20196;-83
2023/06/04 03:15:02;;;;;;;0.50;0.40;;;10.30;99.90;;;;;;5009281;28;20816;-84
2023/06/04 03:17:31;;;;;;;0.50;0.40;;;10.30;99.90;;;;;;5007956;28;20244;-83
2023/06/04 03:19:58;;;;;;;0.50;0.50;;;10.20;99.90;;;;;;5008166;28;20200;-83
2023/06/04 03:22:25;;;;;;;0.50;0.40;;;10.20;99.90;;;;;;5011815;28;20200;-83
2023/06/04 03:24:52;;;;;;;0.50;0.40;;;10.20;99.90;;;;;;5011222;28;20196;-83
2023/06/04 03:27:19;;;;;;;0.50;0.40;;;10.20;99.90;;;;;;5008025;28;20216;-83
2023/06/04 03:29:46;;;;;;;0.50;0.40;;;10.10;99.90;;;;;;5007768;28;20256;-84
2023/06/04 03:32:13;;;;;;;0.50;0.40;;;10.10;99.90;;;;;;5009890;28;20201;-83
2023/06/04 03:34:41;;;;;;;0.50;0.40;;;10.10;99.90;;;;;;5011490;28;20200;-83
2023/06/04 03:37:08;;;;;;;0.50;0.40;;;10.20;99.90;;;;;;5009761;28;20223;-84
2023/06/04 03:39:35;;;;;;;0.50;0.47;;;10.20;99.90;;;;;;5007439;28;20207;-84
2023/06/04 03:42:01;;;;;;;0.50;0.40;;;10.20;99.90;;;;;;5015606;28;20204;-83
2023/06/04 03:44:28;;;;;;;0.50;0.40;;;10.20;99.90;;;;;;5007755;28;20203;-83
2023/06/04 03:46:55;;;;;;;0.50;0.40;;;10.20;99.90;;;;;;5007056;28;20221;-83
2023/06/04 03:49:22;;;;;;;0.50;0.40;;;10.20;99.90;;;;;;4999384;28;20656;-84
2023/06/04 03:51:51;;;;;;;0.52;0.52;;;10.30;99.90;;;;;;5007239;28;20224;-84
2023/06/04 03:54:17;;;;;;;0.50;0.40;;;10.30;99.90;;;;;;5010180;28;20196;-84
2023/06/04 03:56:45;;;;;;;0.50;0.40;;;10.40;99.90;;;;;;5010051;28;20702;-83
2023/06/04 03:59:12;;;;;;;0.50;0.40;;;10.40;99.90;;;;;;5007815;28;20204;-81
2023/06/04 04:01:39;;;;;;;0.50;0.40;;;10.40;99.90;;;;;;5007334;28;20205;-83
2023/06/04 04:04:06;;;;;;;0.50;0.40;;;10.40;99.90;;;;;;5008300;28;20197;-83
2023/06/04 04:06:33;;;;;;;0.50;0.40;;;10.40;99.90;;;;;;5010550;28;20224;-84
2023/06/04 04:09:02;;;;;;;0.50;0.40;;;10.40;99.90;;;;;;5010072;28;20288;-83
2023/06/04 04:11:28;;;;;;;0.50;0.40;;;10.50;99.90;;;;;;5006597;28;20588;-83
2023/06/04 04:13:55;;;;;;;0.50;0.40;;;10.50;99.90;;;;;;5006867;28;20207;-84
2023/06/04 04:16:22;;;;;;;0.50;0.40;;;10.60;99.90;;;;;;5006886;28;20307;-83
2023/06/04 04:18:49;;;;;;;0.50;0.40;;;10.70;99.90;;;;;;5007334;28;20199;-81
2023/06/04 04:21:16;;;;;;;0.50;0.40;;;10.80;99.90;;;;;;5008682;28;20616;-80
2023/06/04 04:23:45;;;;;;;0.50;0.40;;;10.80;99.90;;;;;;5011027;28;20563;-84
2023/06/04 04:26:16;;;;;;;0.60;0.50;;;10.80;99.90;;;;;;5007794;28;20219;-83
2023/06/04 04:28:43;;;;;;;0.50;0.50;;;10.90;99.90;;;;;;5006654;28;20291;-83
2023/06/04 04:31:10;;;;;;;0.50;0.40;;;10.90;99.90;;;;;;5007834;28;20212;-84
2023/06/04 04:33:39;;;;;;;0.70;0.60;;;10.90;99.90;;;;;;5010323;28;20203;-83
2023/06/04 04:36:08;;;;;;;0.50;0.40;;;10.90;99.90;;;;;;5009429;28;20220;-83
2023/06/04 04:38:35;;;;;;;1.55;1.30;;;10.90;99.90;;;;;;5006379;28;20220;-83
2023/06/04 04:41:02;;;;;;;0.50;0.40;;;10.90;99.90;;;;;;5006565;28;20197;-84
2023/06/04 04:43:35;;;;;;;0.88;0.85;;;10.90;99.90;;;;;;5010075;28;20218;-83
2023/06/04 04:46:01;;;;;;;0.55;0.50;;;10.90;99.90;;;;;;5009542;28;20220;-83
2023/06/04 04:48:28;;;;;;;1.17;1.17;;;11.00;99.90;;;;;;5006350;28;20196;-83
2023/06/04 04:50:55;;;;;;;0.50;0.50;;;11.00;99.90;;;;;;5006399;28;20196;-84
2023/06/04 04:53:22;;;;;;;0.60;0.50;;;11.20;99.90;;;;;;5014028;28;20222;-83
2023/06/04 04:55:49;;;;;;;1.13;1.02;;;11.20;99.90;;;;;;5006381;28;20712;-83
2023/06/04 04:58:16;;;;;;;0.50;0.40;;;11.30;99.90;;;;;;5012641;28;20204;-84
2023/06/04 05:00:45;;;;;;;0.50;0.40;;;11.30;99.90;;;;;;5023453;28;20202;-82
2023/06/04 05:03:12;;;;;;;0.50;0.40;;;11.40;99.90;;;;;;5019211;28;20227;-83
2023/06/04 05:05:39;;;;;;;0.60;0.50;;;11.50;99.90;;;;;;5019190;28;20242;-83
2023/06/04 05:08:06;;;;;;;0.50;0.40;;;11.60;99.90;;;;;;5019990;28;20224;-83
2023/06/04 05:10:35;;;;;;;0.50;0.40;;;11.60;99.90;;;;;;5021992;28;20222;-83
2023/06/04 05:13:02;;;;;;;0.50;0.40;;;11.60;99.90;;;;;;5022142;28;20299;-83
2023/06/04 05:15:29;;;;;;;0.57;0.55;;;11.60;99.90;;;;;;5011760;28;20220;-83
2023/06/04 05:17:58;;;;;;;1.08;1.08;;;11.70;99.90;;;;;;5009268;28;20227;-83
2023/06/04 05:20:25;;;;;;;0.60;0.43;;;11.70;99.90;;;;;;5011514;28;20204;-83
2023/06/04 05:22:51;;;;;;;0.50;0.50;;;11.80;99.90;;;;;;5006155;28;20203;-84
2023/06/04 05:25:19;;;;;;;0.68;0.50;;;11.90;99.90;;;;;;5010224;28;20197;-84
2023/06/04 05:27:48;;;;;;;1.20;1.20;;;11.90;99.90;;;;;;5017510;28;20215;-82
2023/06/04 05:30:16;;;;;;;0.50;0.40;;;12.00;99.90;;;;;;5018739;28;20234;-80
2023/06/04 05:32:42;;;;;;;0.50;0.50;;;12.10;99.90;;;;;;5018070;28;20220;-83
2023/06/04 05:35:11;;;;;;;0.50;0.40;;;12.20;99.90;;;;;;5024131;28;20307;-83
2023/06/04 05:37:40;;;;;;;0.50;0.50;;;12.40;99.90;;;;;;5017747;28;20252;-82
2023/06/04 05:40:08;;;;;;;0.50;0.40;;;12.50;99.90;;;;;;5017782;28;20271;-82
2023/06/04 05:42:35;;;;;;;0.50;0.40;;;12.70;99.90;;;;;;5020077;28;20443;-83
2023/06/04 05:45:02;;;;;;;0.50;0.40;;;12.70;99.90;;;;;;5019707;28;20435;-83
2023/06/04 05:47:29;;;;;;;0.60;0.40;;;12.90;99.90;;;;;;4999888;28;20701;-83
2023/06/04 05:49:56;;;;;;;0.60;0.50;;;13.00;99.90;;;;;;5005028;28;20906;-83
2023/06/04 05:52:24;;;;;;;0.50;0.40;;;13.20;99.90;;;;;;5008285;28;20446;-83
2023/06/04 05:54:51;;;;;;;0.60;0.50;;;13.30;99.90;;;;;;5008066;28;20439;-83
2023/06/04 05:57:18;;;;;;;0.50;0.50;;;13.50;99.90;;;;;;5006019;28;20974;-83
2023/06/04 05:59:45;;;;;;;4.40;1.60;;;13.60;99.90;;;;;;5004609;28;20515;-83
2023/06/04 06:02:13;;;;;;;0.60;0.50;;;13.80;99.90;;;;;;5006040;28;20439;-83
2023/06/04 06:04:40;;;;;;;4.20;0.93;;;13.90;99.90;;;;;;5008200;28;20443;-83
2023/06/04 06:07:07;;;;;;;0.50;0.50;;;14.00;99.90;;;;;;5007067;28;20483;-83
2023/06/04 06:09:36;;;;;;;1.00;0.50;;;14.10;99.90;;;;;;5005057;28;20444;-83
2023/06/04 06:12:03;;;;;;;0.50;0.40;;;14.20;99.90;;;;;;5004803;28;20447;-83
2023/06/04 06:14:30;;;;;;;0.50;0.50;;;14.30;99.90;;;;;;4997285;28;20444;-83
2023/06/04 06:16:56;;;;;;;0.90;0.90;;;14.40;99.90;;;;;;5005131;28;20462;-83
2023/06/04 06:19:23;;;;;;;0.50;0.40;;;14.60;99.90;;;;;;5007598;28;20815;-83
2023/06/04 06:21:50;;;;;;;0.53;0.40;;;14.90;99.90;;;;;;5007980;28;20438;-83
2023/06/04 06:24:17;;;;;;;0.50;0.40;;;15.10;99.90;;;;;;5006582;28;20839;-83
2023/06/04 06:26:46;;;;;;;0.50;0.40;;;15.30;99.90;;;;;;5005244;28;20479;-83
2023/06/04 06:29:12;;;;;;;0.50;0.40;;;15.50;99.90;;;;;;5005726;28;20451;-82
2023/06/04 06:31:39;;;;;;;0.60;0.60;;;15.90;99.90;;;;;;5008680;28;20973;-83
2023/06/04 06:34:06;;;;;;;0.50;0.40;;;16.20;99.90;;;;;;5007533;28;20454;-81
2023/06/04 06:36:33;;;;;;;0.50;0.40;;;16.40;99.90;;;;;;5003360;28;20979;-83
2023/06/04 06:39:00;;;;;;;2.40;0.70;;;16.60;99.90;;;;;;5004665;28;20466;-83
2023/06/04 06:41:27;;;;;;;0.50;0.40;;;17.00;99.90;;;;;;5007682;28;20446;-83
2023/06/04 06:43:55;;;;;;;0.60;0.60;;;17.70;99.90;;;;;;5008540;28;20450;-84
2023/06/04 06:46:22;;;;;;;1.77;1.70;;;18.60;99.90;;;;;;5007259;28;20473;-83
2023/06/04 06:48:49;;;;;;;0.80;0.53;;;19.70;92.90;;;;;;5007801;28;20447;-82
2023/06/04 06:51:16;;;;;;;0.50;0.40;;;20.00;85.90;;;;;;5006999;28;20447;-82
2023/06/04 06:53:44;;;;;;;0.90;0.63;;;19.80;81.60;;;;;;5005180;28;20462;-83
2023/06/04 06:56:11;;;;;;;2.87;0.90;;;19.60;83.10;;;;;;5004247;28;20467;-83
2023/06/04 06:58:38;;;;;;;0.50;0.40;;;20.30;85.70;;;;;;5003995;28;20451;-83
2023/06/04 07:01:06;;;;;;;1.47;1.07;;;20.90;82.00;;;;;;5004052;28;20458;-83
2023/06/04 07:03:33;;;;;;;0.60;0.40;;;21.70;80.90;;;;;;4996841;28;20447;-83
2023/06/04 07:05:59;;;;;;;0.50;0.40;;;21.80;72.80;;;;;;5003793;28;20836;-83
2023/06/04 07:08:26;;;;;;;0.50;0.43;;;21.70;69.70;;;;;;5007137;28;20562;-84
2023/06/04 07:10:53;;;;;;;0.60;0.50;;;21.50;68.80;;;;;;5007592;28;20447;-83
2023/06/04 07:13:20;;;;;;;0.50;0.40;;;21.50;67.20;;;;;;5005566;28;20525;-80
2023/06/04 07:15:47;;;;;;;0.50;0.30;;;22.10;71.10;;;;;;5005539;28;20463;-85
2023/06/04 07:18:15;;;;;;;0.50;0.40;;;22.70;67.10;;;;;;5005522;28;20446;-82
2023/06/04 07:20:42;;;;;;;4.73;0.80;;;23.30;67.30;;;;;;5007554;28;20948;-83
2023/06/04 07:23:08;;;;;;;0.50;0.40;;;23.70;64.40;;;;;;5008221;28;20443;-80
2023/06/04 07:25:35;;;;;;;0.50;0.40;;;23.50;60.30;;;;;;5005466;28;20963;-83
2023/06/04 07:28:03;;;;;;;0.50;0.40;;;23.10;59.60;;;;;;5005740;28;20480;-82
2023/06/04 07:30:31;;;;;;;0.93;0.53;;;22.80;60.30;;;;;;5008624;28;20505;-82
2023/06/04 07:32:58;;;;;;;1.03;1.03;;;22.40;60.30;;;;;;5008810;28;20501;-82
2023/06/04 07:35:26;;;;;;;12.43;2.30;;;22.90;61.30;;;;;;5007591;28;20447;-82
2023/06/04 07:37:53;;;;;;;1.10;1.07;;;23.10;60.10;;;;;;5010340;28;20494;-83
2023/06/04 07:40:20;;;;;;;0.50;0.40;;;23.40;63.30;;;;;;5005799;28;20464;-82
2023/06/04 07:42:47;;;;;;;0.50;0.50;;;23.90;60.10;;;;;;5011179;28;20448;-82
2023/06/04 07:45:14;;;;;;;0.50;0.40;;;24.40;59.50;;;;;;5003952;28;20447;-82
2023/06/04 07:50:09;;;;;;;1.27;0.60;;;24.70;59.60;;;;;;5037431;22;20499;-83
2023/06/04 07:52:37;;;;;;;1.90;0.83;;;25.20;61.60;;;;;;5031010;28;20803;-83
2023/06/04 07:55:05;;;;;;;0.50;0.40;;;25.70;59.50;;;;;;5040901;28;20501;-82
2023/06/04 07:57:32;;;;;;;0.50;0.30;;;25.80;57.10;;;;;;5050766;28;20933;-82
2023/06/04 07:59:59;;;;;;;0.50;0.37;;;25.80;57.90;;;;;;5045151;28;20492;-83
2023/06/04 08:02:26;;;;;;;0.97;0.97;;;26.30;58.10;;;;;;5039745;28;20442;-83
2023/06/04 08:04:53;;;;;;;0.50;0.30;;;26.70;57.50;;;;;;5039629;28;20442;-81
2023/06/04 08:07:20;;;;;;;0.50;0.40;;;27.40;55.80;;;;;;5039403;28;20473;-83
2023/06/04 08:09:49;;;;;;;3.10;1.13;;;27.70;55.30;;;;;;5039284;28;20468;-80
2023/06/04 08:12:16;;;;;;;0.50;0.30;;;27.90;55.20;;;;;;5039335;28;20446;-83
2023/06/04 08:14:43;;;;;;;1.70;0.50;;;28.50;54.40;;;;;;5039627;28;20443;-83
2023/06/04 08:17:10;;;;;;;0.53;0.47;;;28.50;51.70;;;;;;5039586;28;20445;-83
2023/06/04 08:19:37;;;;;;;0.77;0.60;;;28.90;54.30;;;;;;5031432;28;20508;-83
2023/06/04 08:22:04;;;;;;;0.50;0.30;;;29.30;54.00;;;;;;5039314;28;20448;-83
2023/06/04 08:24:31;;;;;;;0.50;0.30;;;28.90;50.20;;;;;;5039244;28;20508;-83
2023/06/04 08:26:59;;;;;;;0.70;0.40;;;29.30;52.20;;;;;;5038922;28;20484;-81
2023/06/04 08:29:26;;;;;;;0.50;0.30;;;28.90;50.70;;;;;;5039012;28;20529;-83
2023/06/04 08:31:53;;;;;;;0.60;0.60;;;29.50;51.50;;;;;;5039834;28;20814;-83
2023/06/04 08:34:20;;;;;;;0.87;0.60;;;29.90;50.60;;;;;;5038626;28;20453;-83
2023/06/04 08:36:47;;;;;;;0.50;0.30;;;30.40;49.10;;;;;;5038492;28;20937;-83
2023/06/04 08:39:14;;;;;;;0.50;0.30;;;29.90;48.40;;;;;;5039039;28;20465;-83
2023/06/04 08:41:44;;;;;;;0.50;0.40;;;29.90;47.60;;;;;;5038974;28;20442;-81
2023/06/04 08:44:13;;;;;;;0.50;0.40;;;29.30;47.10;;;;;;5038798;28;20461;-83
2023/06/04 08:46:40;;;;;;;0.60;0.43;;;29.00;47.60;;;;;;5039152;28;20447;-83
2023/06/04 08:49:08;;;;;;;0.50;0.30;;;28.60;47.60;;;;;;5038261;28;20896;-83
2023/06/04 08:51:37;;;;;;;1.23;1.23;;;28.20;49.50;;;;;;5038874;28;20441;-83
2023/06/04 08:54:07;;;;;;;0.60;0.40;;;29.00;51.00;;;;;;5038448;28;20449;-83
2023/06/04 08:56:34;;;;;;;0.50;0.30;;;29.30;49.40;;;;;;5038099;28;21509;-83
2023/06/04 08:59:03;;;;;;;0.50;0.30;;;30.10;51.20;;;;;;5037641;28;20458;-83
2023/06/04 09:01:33;;;;;;;0.50;0.30;;;30.90;47.50;;;;;;5037475;28;20448;-83
2023/06/04 09:04:02;;;;;;;1.37;0.83;;;30.90;47.50;;;;;;5038900;28;20446;-83
2023/06/04 09:06:30;;;;;;;0.50;0.40;;;31.30;45.80;;;;;;5037899;28;20450;-84
2023/06/04 09:08:58;;;;;;;0.50;0.30;;;31.20;45.60;;;;;;5037809;28;20981;-83
2023/06/04 09:11:34;;;;;;;0.60;0.50;;;31.10;45.90;;;;;;5037895;28;20438;-83
2023/06/04 09:14:04;;;;;;;0.50;0.40;;;31.00;43.10;;;;;;5038686;28;20499;-83
2023/06/04 09:16:37;;;;;;;0.80;0.80;;;30.20;44.00;;;;;;5038454;28;20442;-83
2023/06/04 09:19:05;;;;;;;0.50;0.30;;;30.30;45.20;;;;;;5038359;28;20545;-83
2023/06/04 09:21:32;;;;;;;0.50;0.30;;;31.10;46.10;;;;;;5038108;28;20442;-83
2023/06/04 09:23:59;;;;;;;0.50;0.30;;;31.20;44.50;;;;;;5038608;28;20477;-83
2023/06/04 09:26:26;;;;;;;0.50;0.40;;;31.90;44.30;;;;;;5038308;28;20835;-83
2023/06/04 09:28:56;;;;;;;0.70;0.50;;;31.60;41.60;;;;;;5038517;28;20478;-84
2023/06/04 09:31:26;;;;;;;0.50;0.30;;;30.90;40.60;;;;;;5038406;28;20477;-83
2023/06/04 09:33:54;;;;;;;0.50;0.30;;;30.30;41.70;;;;;;5037697;28;20438;-79
2023/06/04 09:36:21;;;;;;;0.50;0.40;;;30.10;43.10;;;;;;5037074;28;20442;-82
2023/06/04 09:38:48;;;;;;;0.70;0.60;;;30.50;44.00;;;;;;5037807;28;20482;-81
2023/06/04 09:41:16;;;;;;;0.50;0.30;;;30.10;41.90;;;;;;5037927;28;20429;-82
2023/06/04 09:43:44;;;;;;;0.80;0.60;;;30.50;42.90;;;;;;5030221;28;20446;-82
2023/06/04 09:46:12;;;;;;;0.50;0.33;;;31.20;42.00;;;;;;5037400;28;20441;-82
2023/06/04 09:48:39;;;;;;;0.60;0.40;;;30.90;39.30;;;;;;5037539;28;20521;-82
2023/06/04 09:51:12;;;;;;;0.50;0.30;;;30.10;39.50;;;;;;5037687;28;20529;-82
2023/06/04 09:53:40;;;;;;;0.50;0.30;;;29.70;40.40;;;;;;5037409;28;20446;-82
2023/06/04 09:56:08;;;;;;;0.50;0.30;;;29.60;39.70;;;;;;5037461;28;20449;-83
2023/06/04 09:58:36;;;;;;;0.70;0.40;;;29.40;41.70;;;;;;5036947;28;21004;-82
2023/06/04 10:01:05;;;;;;;0.60;0.40;;;29.60;40.60;;;;;;5037131;28;20488;-82
2023/06/04 10:03:33;;;;;;;0.50;0.37;;;29.80;41.90;;;;;;5037603;28;20474;-84
2023/06/04 10:06:03;;;;;;;0.50;0.40;;;30.60;43.00;;;;;;5037199;28;20448;-83
2023/06/04 10:08:32;;;;;;;1.40;1.10;;;31.70;42.50;;;;;;5046066;28;20481;-82
2023/06/04 10:11:01;;;;;;;0.50;0.30;;;32.30;38.80;;;;;;5042062;28;20454;-81
2023/06/04 10:13:30;;;;;;;0.50;0.30;;;31.70;38.50;;;;;;5038086;28;21014;-83
2023/06/04 10:15:59;;;;;;;0.50;0.30;;;32.00;40.00;;;;;;5037289;28;20506;-80
2023/06/04 10:18:28;;;;;;;0.50;0.30;;;32.20;40.90;;;;;;5037295;28;20466;-83
2023/06/04 10:20:56;;;;;;;0.50;0.40;;;32.90;41.90;;;;;;5037401;28;20442;-83
2023/06/04 10:23:24;;;;;;;0.50;0.50;;;33.30;38.90;;;;;;5037672;28;20443;-82
2023/06/04 10:25:53;;;;;;;0.40;0.30;;;32.80;39.30;;;;;;5036853;28;20439;-83
2023/06/04 10:28:22;;;;;;;0.47;0.30;;;32.90;40.30;;;;;;5037048;28;20478;-82
2023/06/04 10:30:50;;;;;;;0.50;0.30;;;32.70;39.80;;;;;;5036777;28;20450;-81
2023/06/04 10:33:19;;;;;;;0.50;0.30;;;33.20;40.90;;;;;;5037750;28;20486;-83
2023/06/04 10:35:47;;;;;;;0.63;0.63;;;33.70;40.10;;;;;;5028699;28;20451;-83
2023/06/04 10:38:16;;;;;;;1.13;0.77;;;33.30;39.30;;;;;;5036394;28;20477;-83
2023/06/04 10:40:43;;;;;;;0.40;0.30;;;33.20;40.80;;;;;;5036031;28;20446;-84
2023/06/04 10:43:13;;;;;;;0.50;0.30;;;33.50;39.50;;;;;;5036651;28;20958;-83
2023/06/04 10:45:41;;;;;;;0.50;0.30;;;33.60;38.60;;;;;;5036095;28;20446;-83
2023/06/04 10:48:08;;;;;;;0.40;0.30;;;34.00;40.40;;;;;;5036587;28;20475;-83
2023/06/04 10:50:47;;;;;;;0.47;0.40;;;34.20;39.20;;;;;;5036431;28;20450;-83
2023/06/04 10:53:14;;;;;;;1.43;0.80;;;34.30;38.20;;;;;;5036607;28;20437;-82
2023/06/04 10:55:45;;;;;;;0.60;0.60;;;33.10;37.30;;;;;;5036638;28;20438;-83
2023/06/04 10:58:13;;;;;;;2.67;2.57;;;32.80;37.90;;;;;;5036278;28;20469;-83
2023/06/04 11:00:41;;;;;;;0.70;0.70;;;32.80;39.40;;;;;;5035695;28;20449;-83
2023/06/04 11:03:10;;;;;;;0.50;0.30;;;33.10;38.70;;;;;;5036538;28;20442;-83
2023/06/04 11:05:38;;;;;;;0.83;0.50;;;33.20;38.30;;;;;;5036186;28;20965;-82
2023/06/04 11:08:08;;;;;;;0.50;0.30;;;33.20;38.10;;;;;;5036893;28;20477;-83
2023/06/04 11:10:36;;;;;;;0.50;0.40;;;32.90;38.60;;;;;;5037026;28;20442;-83
2023/06/04 11:13:04;;;;;;;0.50;0.30;;;33.00;39.80;;;;;;5037274;28;20884;-83
2023/06/04 11:15:40;;;;;;;0.40;0.30;;;33.20;39.70;;;;;;5036054;28;20447;-83
2023/06/04 11:18:07;;;;;;;0.47;0.30;;;33.50;40.20;;;;;;5036259;28;20470;-83
2023/06/04 11:20:34;;;;;;;0.60;0.57;;;33.80;39.30;;;;;;5036497;28;20443;-84
2023/06/04 11:23:03;;;;;;;0.40;0.30;;;34.10;39.60;;;;;;5036938;28;20526;-84
2023/06/04 11:25:30;;;;;;;0.40;0.30;;;34.50;40.20;;;;;;5040212;28;20453;-84
2023/06/04 11:27:58;;;;;;;0.50;0.40;;;34.90;40.70;;;;;;5040079;28;20542;-85
2023/06/04 11:30:25;;;;;;;2.70;0.90;;;34.40;35.40;;;;;;5039535;28;20453;-84
2023/06/04 11:33:03;;;;;;;0.50;0.30;;;33.90;34.40;;;;;;5040397;28;20447;-82
2023/06/04 11:35:30;;;;;;;0.50;0.40;;;33.00;36.90;;;;;;5039158;28;20442;-84
2023/06/04 11:37:58;;;;;;;1.53;0.50;;;32.60;36.10;;;;;;5040037;28;20477;-83
2023/06/04 11:40:26;;;;;;;0.67;0.60;;;31.70;36.20;;;;;;5044264;28;20479;-83
2023/06/04 11:42:53;;;;;;;0.50;0.30;;;31.20;38.10;;;;;;5039993;28;20460;-81
2023/06/04 11:45:22;;;;;;;0.50;0.40;;;31.80;39.00;;;;;;5040001;28;20446;-84
2023/06/04 11:47:50;;;;;;;1.23;1.13;;;32.00;38.10;;;;;;5039550;28;20446;-84
2023/06/04 11:50:18;;;;;;;0.50;0.30;;;32.60;37.70;;;;;;5041009;28;20446;-84
2023/06/04 11:52:45;;;;;;;1.20;0.90;;;32.30;36.30;;;;;;5039623;28;20466;-84
2023/06/04 11:55:12;;;;;;;0.50;0.40;;;32.60;38.00;;;;;;5039195;28;20446;-84
2023/06/04 11:57:40;;;;;;;0.50;0.40;;;32.80;38.30;;;;;;5039830;28;20448;-84
2023/06/04 12:00:09;;;;;;;0.50;0.40;;;32.80;37.20;;;;;;5039348;28;20458;-84
2023/06/04 12:02:36;;;;;;;0.50;0.30;;;32.20;36.60;;;;;;5038256;28;20477;-84
2023/06/04 12:05:12;;;;;;;0.50;0.30;;;31.60;37.90;;;;;;5039370;28;21050;-84
2023/06/04 12:07:41;;;;;;;0.50;0.30;;;31.80;38.40;;;;;;5039487;28;20445;-82
2023/06/04 12:10:08;;;;;;;0.50;0.40;;;32.20;38.80;;;;;;5039413;28;20551;-84
2023/06/04 12:12:35;;;;;;;2.40;1.63;;;32.50;38.10;;;;;;5039434;28;20453;-84
2023/06/04 12:15:03;;;;;;;0.80;0.80;;;32.80;39.20;;;;;;5039398;28;20504;-84
2023/06/04 12:17:30;;;;;;;0.50;0.40;;;33.30;38.20;;;;;;5038284;28;20993;-84
2023/06/04 12:19:58;;;;;;;0.40;0.30;;;33.30;36.60;;;;;;5038838;28;20833;-84
2023/06/04 12:22:26;;;;;;;0.50;0.30;;;33.40;36.50;;;;;;5040432;28;20446;-84
2023/06/04 12:24:55;;;;;;;0.50;0.50;;;32.90;38.90;;;;;;5039211;28;20532;-84
2023/06/04 12:27:25;;;;;;;0.50;0.30;;;33.60;38.60;;;;;;5038674;28;20798;-83
2023/06/04 12:29:59;;;;;;;0.40;0.30;;;33.70;37.00;;;;;;5038092;28;20495;-83
2023/06/04 12:32:27;;;;;;;0.50;0.30;;;33.90;36.90;;;;;;5039122;28;20440;-84
2023/06/04 12:34:54;;;;;;;4.27;1.20;;;34.30;37.10;;;;;;5031273;28;20435;-83
2023/06/04 12:37:22;;;;;;;0.43;0.30;;;34.10;34.70;;;;;;5038801;28;20466;-84
2023/06/04 12:39:48;;;;;;;0.40;0.30;;;33.90;37.60;;;;;;5038770;28;20819;-82
2023/06/04 12:42:18;;;;;;;0.50;0.47;;;34.00;36.80;;;;;;5039053;28;20442;-84
2023/06/04 12:44:45;;;;;;;0.40;0.30;;;34.50;38.00;;;;;;5038469;28;20443;-84
2023/06/04 12:47:12;;;;;;;0.50;0.30;;;34.10;36.10;;;;;;5039419;28;20822;-83
2023/06/04 12:49:39;;;;;;;0.40;0.40;;;33.80;37.70;;;;;;5038040;28;21048;-83
2023/06/04 12:52:06;;;;;;;0.40;0.30;;;34.10;37.90;;;;;;5038304;28;20454;-83
2023/06/04 12:54:33;;;;;;;0.43;0.40;;;34.40;38.30;;;;;;5038666;28;20896;-83